Decatur, GA (30032)

12:07 PM EDT on August 28, 2015 (GMT -0400)
Majestic Acres | | Change Station
CLOSE
Current Station
Personal Weather Station
Location: Avondale Estates, GA
Elevation: 1035 ft
Nearby Weather Stations

Elev 1035 ft 33.77 °N, 84.26 °W | Updated 1 minute ago

Overcast
Overcast
73.4 °F
Feels Like 73 °F
N
2.0
Wind Variable Wind from NE
Gusts 3.0 mph

Today
High -- | Low -- °F
--% Chance of Precip.
Yesterday
High -- | Low -- °F
Precip. -- in
7:07 AM 8:08 PM
Waxing Gibbous, 98% visible
Pressure 30.20 in
Visibility 9.0 miles
Clouds Mostly Cloudy 1400 ft
Mostly Cloudy 2600 ft
Heat Index 73 °F
Dew Point 68 °F
Humidity 82%
Rainfall 0.00 in
Snow Depth Not available.
UV 5 out of 12
Pollen 8.30 out of 12
Air Quality Not available.
Flu Activity Not available.
SPECI KPDK 281600Z VRB06KT 9SM BKN014 BKN026 24/21 A3020 RMK AO2 T02440206
Pressure 30.20 in
Visibility 9.0 miles
Clouds Mostly Cloudy 1400 ft
Mostly Cloudy 2600 ft
Heat Index 73 °F
Dew Point 68 °F
Humidity 82%
Rainfall 0.00 in
Snow Depth Not available.
UV 5 out of 12
Pollen 8.30 out of 12
Air Quality Not available.
Flu Activity Not available.
SPECI KPDK 281600Z VRB06KT 9SM BKN014 BKN026 24/21 A3020 RMK AO2 T02440206

10-Day Weather Forecast

×

Almanac

Astronomy

Aug. 28, 2015 Rise Set
Actual Time
Civil Twilight
Nautical Twilight
Astronomical Twilight
Moon
Length of Visible Light
Length of Day
Tomorrow will be .
, % of the Moon is Illuminated

Today's Extremes

State Highs State Lows

Community

WunderPhotos

Upload Photos

1,850,411 photos uploaded!

WunderBlogs® & News

Nearby

Air Quality

  Air Quality AQ Index Pollutant
Not available.

Snow Depth

Station Depth Elevation

Earthquake Activity

City Distance Mag. Time & Date
Minimum magnitude displayed is 2.5.

Coastal Water Temperatures

Place Temperature

Stations

Nearby Weather Stations

Station Location Temp. Windchill Dew Point Humidity Wind Precip. Elev Updated Type